Latest Weather Observations for Williamtown

IDN60901

Issued at 8:01 pm EST Saturday 1 August 2015 (issued every 10 minutes, with the page automatically refreshed every 10 minutes)

About weather observations | Map of Sydney area stations | Latest observations for Sydney area | Other Formats
Station Details ID: 061078 Name: WILLIAMTOWN RAAF Lat: -32.79 Lon: 151.84 Height: 9.0 m
Data from the previous 72 hours. | See also: Recent months at Williamtown
Date/Time
EST
Tmp

°C
App
Tmp
°C
Dew
Point
°C
Rel
Hum
%
Delta-T

°C
Wind Press
QNH
hPa
Press
MSL
hPa
Rain
since
9 am
mm
Dir
 
Spd
km/h
Gust
km/h
Spd
kts
Gust
kts
01/08:00pm 13.4 11.1 7.5 67 2.9 NE 9 13 5 7 1018.3 1018.3 0.0
01/07:30pm 13.9 13.5 8.3 69 2.8 CALM 0 6 0 3 1018.5 1018.5 0.0
01/07:00pm 16.3 14.2 6.5 52 4.8 N 7 9 4 5 1017.8 1017.8 0.0
01/06:30pm 18.2 15.1 5.4 43 6.2 N 11 13 6 7 1017.7 1017.7 0.0
01/06:00pm 18.8 15.1 4.6 39 6.8 N 13 15 7 8 1017.4 1017.4 0.0
01/05:30pm 18.7 14.6 4.4 39 6.8 NNW 15 19 8 10 1017.0 1017.0 0.0
01/05:00pm 20.2 16.4 4.1 34 7.7 N 13 17 7 9 1017.1 1017.1 0.0
01/04:30pm 21.3 16.6 3.2 30 8.6 NW 17 22 9 12 1017.1 1017.1 0.0
01/04:00pm 22.2 15.8 3.1 28 9.1 WNW 26 33 14 18 1016.9 1016.9 0.0
01/03:30pm 22.8 17.0 4.5 30 9.0 WNW 24 39 13 21 1016.7 1016.7 0.0
01/03:00pm 22.6 16.2 5.4 32 8.6 WNW 28 39 15 21 1016.8 1016.8 0.0
01/02:30pm 23.0 15.6 3.9 28 9.3 WNW 32 41 17 22 1016.7 1016.7 0.0
01/02:00pm 21.6 15.9 4.9 33 8.2 NW 24 32 13 17 1016.6 1016.6 0.0
01/01:30pm 22.3 19.1 4.9 32 8.6 NNW 11 26 6 14 1016.9 1016.9 0.0
01/01:00pm 20.4 17.5 6.7 41 6.9 NW 11 19 6 10 1017.5 1017.5 0.0
01/12:30pm 19.9 17.0 6.3 41 6.8 NNW 11 15 6 8 1018.0 1018.0 0.0
01/12:00pm 19.1 15.4 6.2 43 6.4 NNW 15 19 8 10 1018.6 1018.6 0.0
01/11:30am 17.6 13.4 5.6 45 5.8 N 17 22 9 12 1019.4 1019.4 0.0
01/11:00am 16.5 12.6 5.4 48 5.3 N 15 19 8 10 1019.7 1019.7 0.0
01/10:30am 15.8 12.8 5.8 51 4.8 NW 11 15 6 8 1020.4 1020.4 0.0
01/10:00am 13.7 9.8 5.3 57 3.9 WNW 15 19 8 10 1020.6 1020.6 0.0
01/09:30am 12.9 8.9 5.1 59 3.6 NW 15 20 8 11 1020.8 1020.8 0.0
01/09:00am 12.5 9.0 5.6 63 3.2 NW 13 19 7 10 1020.6 1020.6 0.0
01/08:30am 10.7 7.3 5.9 72 2.2 NW 13 15 7 8 1020.7 1020.7 0.0
01/08:00am 8.9 5.6 6.3 84 1.2 NW 13 19 7 10 1020.5 1020.5 0.0
01/07:30am 5.2 2.6 4.3 94 0.4 WNW 7 9 4 5 1020.3 1020.3 0.0
01/07:00am 3.2 0.2 2.2 93 0.4 SW 7 9 4 5 1020.3 1020.3 0.0
01/06:30am 3.8 1.2 3.3 97 0.2 NNW 6 7 3 4 1019.9 1019.9 0.0
01/05:30am 3.7 2.2 3.2 97 0.2 CALM 0 0 0 0 1020.1 1020.1 0.0
01/05:00am 4.7 1.6 3.7 93 0.4 NW 9 11 5 6 1020.1 1020.1 0.0
01/04:30am 4.3 1.2 3.6 95 0.3 NW 9 9 5 5 1020.1 1020.1 0.0
01/04:00am 5.3 2.9 4.4 94 0.4 N 6 7 3 4 1020.2 1020.2 0.0
01/03:30am 4.5 2.0 4.0 97 0.2 WNW 6 7 3 4 1020.2 1020.2 0.0
01/03:00am 4.5 2.7 3.5 93 0.4 WNW 2 6 1 3 1020.3 1020.3 0.0
01/02:30am 5.3 4.1 4.6 95 0.3 CALM 0 0 0 0 1020.6 1020.6 0.0
01/02:00am 5.3 4.1 4.6 95 0.3 CALM 0 0 0 0 1020.8 1020.8 0.0
01/01:30am 5.4 3.1 4.7 95 0.3 NE 6 7 3 4 1021.2 1021.2 0.0
01/01:00am 6.5 4.2 5.6 94 0.4 NNW 7 7 4 4 1021.6 1021.6 0.0
01/12:30am 6.2 5.1 5.3 94 0.4 CALM 0 0 0 0 1021.8 1021.8 0.0
 
Date/Time
EST
Tmp

°C
App
Tmp
°C
Dew
Point
°C
Rel
Hum
%
Delta-T

°C
Wind Press
QNH
hPa
Press
MSL
hPa
Rain
since
9 am
mm
Dir
 
Spd
km/h
Gust
km/h
Spd
kts
Gust
kts
31/11:30pm 7.8 6.8 5.8 87 0.9 CALM 0 0 0 0 1022.2 1022.2 0.0
31/11:00pm 9.9 7.1 5.2 72 2.1 N 9 15 5 8 1022.3 1022.3 0.0
31/10:30pm 11.5 8.0 5.6 67 2.7 NNE 13 15 7 8 1022.2 1022.2 0.0
31/10:00pm 11.0 7.6 5.8 70 2.4 NNE 13 15 7 8 1022.1 1022.1 0.0
31/09:30pm 11.9 8.4 5.6 65 2.9 NNE 13 17 7 9 1022.2 1022.2 0.0
31/09:00pm 12.0 8.6 5.8 66 2.9 NNE 13 19 7 10 1022.0 1022.0 0.0
31/08:30pm 9.2 6.9 5.7 79 1.6 N 7 9 4 5 1021.8 1021.8 0.0
31/08:00pm 11.1 8.6 6.6 74 2.1 NNE 9 11 5 6 1021.7 1021.7 0.0
31/07:30pm 11.9 9.3 6.1 67 2.7 NNE 9 11 5 6 1021.6 1021.6 0.0
31/07:00pm 9.5 7.1 6.9 84 1.2 NNE 9 11 5 6 1021.3 1021.3 0.0
31/06:30pm 12.1 10.9 6.6 69 2.6 N 2 7 1 4 1021.2 1021.2 0.0
31/06:00pm 13.5 11.5 6.9 64 3.2 NE 7 11 4 6 1020.9 1020.9 0.0
31/05:30pm 15.0 12.9 6.8 58 4.0 E 7 11 4 6 1020.5 1020.5 0.0
31/05:00pm 16.4 13.4 6.1 50 5.0 ESE 11 13 6 7 1020.2 1020.2 0.0
31/04:30pm 17.5 14.0 5.5 45 5.8 SE 13 17 7 9 1020.1 1020.1 0.0
31/04:00pm 18.3 15.1 5.3 42 6.3 SE 11 15 6 8 1019.9 1019.9 0.0
31/03:30pm 19.0 16.3 5.7 41 6.5 ESE 9 13 5 7 1020.0 1020.0 0.0
31/03:00pm 19.5 15.8 4.2 36 7.3 NNW 13 19 7 10 1020.0 1020.0 0.0
31/02:30pm 19.3 16.5 5.1 39 6.9 SE 9 13 5 7 1020.1 1020.1 0.0
31/02:00pm 19.5 15.5 2.9 33 7.7 WNW 13 24 7 13 1020.0 1020.0 0.0
31/01:30pm 20.0 15.5 2.2 30 8.2 W 15 26 8 14 1020.3 1020.3 0.0
31/01:00pm 19.9 14.8 3.0 32 7.9 W 19 30 10 16 1020.7 1020.7 0.0
31/12:30pm 19.5 12.6 2.3 32 7.9 WNW 28 35 15 19 1020.9 1020.9 0.0
31/12:00pm 19.1 13.4 2.6 33 7.6 WNW 22 33 12 18 1021.1 1021.1 0.0
31/11:30am 18.4 11.6 3.0 36 7.1 W 28 37 15 20 1021.6 1021.6 0.0
31/11:00am 18.0 11.4 4.2 40 6.5 WNW 28 35 15 19 1021.3 1021.3 0.0
31/10:50am 17.4 9.7 3.6 40 6.4 WNW 33 52 18 28 1021.4 1021.4 0.0
31/10:30am 17.3 8.6 4.3 42 6.1 WNW 39 52 21 28 1021.2 1021.2 0.0
31/10:07am 16.7 9.4 4.6 44 5.7 WNW 32 50 17 27 1021.6 1021.6 0.0
31/10:00am 16.5 9.6 4.8 46 5.5 WNW 30 41 16 22 1021.8 1021.8 0.0
31/09:30am 14.7 8.8 5.9 55 4.2 WNW 26 33 14 18 1022.0 1022.0 0.0
31/09:00am 14.0 10.7 6.5 60 3.6 W 13 17 7 9 1022.5 1022.5 0.0
31/08:30am 12.2 10.1 6.7 69 2.6 N 7 9 4 5 1022.3 1022.3 0.0
31/08:00am 11.7 9.2 6.4 70 2.5 NNW 9 13 5 7 1021.8 1021.8 0.0
31/07:30am 10.4 9.2 8.1 86 1.1 NW 4 9 2 5 1021.4 1021.4 0.0
31/07:00am 11.4 8.1 6.3 71 2.4 NNW 13 15 7 8 1021.0 1021.0 0.0
31/06:30am 11.5 8.0 5.4 66 2.8 NW 13 17 7 9 1020.5 1020.5 0.0
31/06:00am 11.2 9.0 5.3 67 2.7 W 6 9 3 5 1020.4 1020.4 0.0
31/05:30am 12.0 7.9 4.5 60 3.4 NW 15 19 8 10 1019.9 1019.9 0.0
31/05:00am 12.3 7.4 4.3 58 3.6 WNW 19 28 10 15 1020.0 1020.0 0.0
31/04:30am 11.4 7.0 4.5 62 3.1 WNW 17 24 9 13 1019.7 1019.7 0.0
31/04:00am 12.3 6.5 4.3 58 3.6 WNW 24 30 13 16 1019.5 1019.5 0.0
31/03:30am 12.6 7.8 4.5 58 3.7 WNW 19 26 10 14 1019.4 1019.4 0.0
31/03:00am 12.8 8.8 4.7 58 3.7 NW 15 20 8 11 1019.6 1019.6 0.0
31/02:30am 13.3 7.9 4.6 55 4.0 WNW 22 30 12 16 1019.9 1019.9 0.0
31/02:00am 12.7 8.3 4.8 58 3.6 NW 17 20 9 11 1020.0 1020.0 0.0
31/01:30am 12.8 8.8 5.0 59 3.6 NW 15 17 8 9 1020.0 1020.0 0.0
31/01:00am 13.8 8.8 4.7 54 4.2 NNW 20 28 11 15 1019.9 1019.9 0.0
31/12:30am 14.6 9.6 4.4 50 4.7 NW 20 30 11 16 1020.3 1020.3 0.0
31/12:00am 14.5 8.7 4.5 51 4.6 NW 24 30 13 16 1020.7 1020.7 0.0
 
Date/Time
EST
Tmp

°C
App
Tmp
°C
Dew
Point
°C
Rel
Hum
%
Delta-T

°C
Wind Press
QNH
hPa
Press
MSL
hPa
Rain
since
9 am
mm
Dir
 
Spd
km/h
Gust
km/h
Spd
kts
Gust
kts
30/11:30pm 13.4 9.4 4.7 55 4.0 NNW 15 19 8 10 1020.7 1020.7 0.0
30/11:00pm 13.4 9.5 3.6 51 4.4 NNW 13 17 7 9 1020.9 1020.9 0.0
30/10:30pm 12.0 9.1 4.5 60 3.4 NW 9 9 5 5 1021.1 1021.1 0.0
30/10:00pm 10.6 6.8 4.0 63 2.9 NW 13 13 7 7 1020.9 1020.9 0.0
30/09:30pm 12.1 8.5 3.2 54 3.9 WNW 11 13 6 7 1021.2 1021.2 0.0
30/09:00pm 14.0 10.4 2.7 46 5.0 NNW 11 15 6 8 1021.4 1021.4 0.0
30/08:30pm 15.1 11.3 1.9 41 5.8 N 11 15 6 8 1021.3 1021.3 0.0
30/08:00pm 15.3 11.1 1.5 39 6.0 N 13 15 7 8 1021.4 1021.4 0.0
30/07:30pm 15.9 10.9 1.2 37 6.4 NNW 17 22 9 12 1021.2 1021.2 0.0
30/07:00pm 16.3 11.6 1.2 36 6.6 NNW 15 20 8 11 1021.0 1021.0 0.0
30/06:30pm 16.2 10.8 1.0 35 6.6 NNW 19 26 10 14 1020.9 1020.9 0.0
30/06:00pm 14.7 10.3 2.8 44 5.3 WNW 15 20 8 11 1020.8 1020.8 0.0
30/05:30pm 15.4 12.2 3.0 43 5.6 NNW 9 11 5 6 1020.9 1020.9 0.0
30/05:00pm 16.5 11.6 1.8 37 6.5 NW 17 22 9 12 1020.7 1020.7 0.0
30/04:30pm 17.1 12.0 3.1 39 6.4 WNW 19 24 10 13 1021.1 1021.1 0.0
30/04:00pm 19.2 15.5 4.3 37 7.1 NW 13 19 7 10 1021.5 1021.5 0.0
30/03:30pm 18.9 15.0 5.3 41 6.6 NNW 15 19 8 10 1021.7 1021.7 0.0
30/03:00pm 19.6 14.8 4.6 37 7.2 NW 19 24 10 13 1021.9 1021.9 0.0
30/02:30pm 19.8 14.9 4.9 37 7.2 WNW 20 28 11 15 1022.3 1022.3 0.0
30/02:00pm 19.4 14.6 4.6 37 7.1 WNW 19 28 10 15 1022.4 1022.4 0.0
30/01:30pm 19.2 14.8 6.5 43 6.3 NNW 19 26 10 14 1022.7 1022.7 0.0
30/01:00pm 18.0 14.8 6.7 47 5.6 NNW 13 20 7 11 1023.2 1023.2 0.0
30/12:30pm 17.8 13.8 6.7 48 5.5 NNW 17 26 9 14 1023.8 1023.8 0.0
30/12:00pm 17.2 12.9 6.9 50 5.1 NNW 19 26 10 14 1024.7 1024.7 0.0
30/11:30am 16.2 11.2 6.3 52 4.8 NW 22 30 12 16 1025.6 1025.6 0.0
30/11:00am 14.7 11.8 8.3 65 3.2 NNW 13 19 7 10 1026.4 1026.4 0.0
30/10:30am 13.9 11.4 8.3 69 2.8 NW 11 15 6 8 1027.0 1027.0 0.0
30/10:00am 12.8 9.4 7.7 71 2.5 WNW 15 19 8 10 1027.4 1027.4 0.0
30/09:30am 11.6 7.8 7.7 77 1.9 WNW 17 22 9 12 1027.8 1027.8 0.0
30/09:00am 11.1 9.0 8.4 83 1.3 NNW 9 15 5 8 1028.0 1028.0 0.0
30/08:30am 9.8 7.3 8.1 89 0.8 NW 11 15 6 8 1028.0 1028.0 0.0
30/08:00am 8.1 5.8 7.5 96 0.3 NW 9 11 5 6 1028.1 1028.1 0.0
30/07:30am 6.2 5.2 5.7 97 0.2 CALM 0 0 0 0 1027.8 1027.8 0.0
30/07:00am 5.0 2.5 4.8 99 0.1 NW 7 9 4 5 1027.7 1027.7 0.0
30/06:53am 5.0 2.5 5.0 100 0.0 NW 7 7 4 4 1027.6 1027.6 0.0
30/06:30am 5.8 3.1 5.6 99 0.1 NNW 9 11 5 6 1027.5 1027.5 0.0
30/06:00am 5.4 2.6 5.2 99 0.1 NW 9 9 5 5 1027.4 1027.4 0.0
30/05:42am 5.7 3.0 5.5 99 0.1 WNW 9 11 5 6 1027.3 1027.3 0.0
30/05:30am 5.6 3.2 5.1 97 0.2 WNW 7 11 4 6 1027.2 1027.2 0.0
30/05:27am 5.5 3.7 5.3 99 0.1 WNW 4 9 2 5 1027.2 1027.2 0.0
30/05:00am 5.0 3.8 4.5 97 0.2 CALM 0 0 0 0 1027.1 1027.1 0.0
30/04:30am 4.9 3.7 4.4 97 0.2 CALM 0 0 0 0 1027.0 1027.0 0.0
30/04:00am 5.2 3.3 5.0 99 0.1 NNW 4 7 2 4 1027.4 1027.4 0.0
30/03:30am 4.6 2.2 4.1 97 0.2 W 6 9 3 5 1027.8 1027.8 0.0
30/03:00am 5.2 3.6 4.7 97 0.2 N 2 7 1 4 1027.7 1027.7 0.0
30/02:30am 5.4 4.2 4.5 94 0.4 CALM 0 0 0 0 1028.2 1028.2 0.0
30/02:00am 5.1 3.9 4.4 95 0.3 CALM 0 0 0 0 1028.7 1028.7 0.0
30/01:30am 5.0 3.7 4.3 95 0.3 CALM 0 0 0 0 1028.9 1028.9 0.0
30/01:00am 5.6 4.5 5.1 97 0.2 CALM 0 0 0 0 1028.9 1028.9 0.0
30/12:30am 5.9 3.7 5.2 95 0.3 N 6 7 3 4 1029.1 1029.1 0.0
30/12:00am 5.9 4.9 5.4 97 0.2 CALM 0 0 0 0 1029.9 1029.9 0.0
 
Date/Time
EST
Tmp

°C
App
Tmp
°C
Dew
Point
°C
Rel
Hum
%
Delta-T

°C
Wind Press
QNH
hPa
Press
MSL
hPa
Rain
since
9 am
mm
Dir
 
Spd
km/h
Gust
km/h
Spd
kts
Gust
kts
29/11:30pm 6.1 5.1 5.4 95 0.3 CALM 0 0 0 0 1030.6 1030.6 0.0
29/11:22pm 5.9 4.8 5.0 94 0.4 CALM 0 0 0 0 1030.7 1030.7 0.0
29/11:03pm 6.2 5.2 5.5 95 0.3 CALM 0 0 0 0 1030.7 1030.7 0.0
29/11:00pm 5.9 4.9 5.4 97 0.2 CALM 0 0 0 0 1030.7 1030.7 0.0
29/10:30pm 6.8 5.9 6.1 95 0.3 CALM 0 0 0 0 1030.6 1030.6 0.0
29/10:00pm 6.7 5.7 5.8 94 0.4 CALM 0 0 0 0 1030.8 1030.8 0.0
29/09:30pm 6.9 6.0 6.2 95 0.3 CALM 0 0 0 0 1030.5 1030.5 0.0
29/09:00pm 6.8 6.0 6.4 97 0.2 CALM 0 0 0 0 1030.8 1030.8 0.0
29/08:30pm 7.3 6.5 6.4 94 0.4 CALM 0 0 0 0 1031.2 1031.2 0.0

Latest Capital City Observations: Canberra | Sydney | Melbourne | Brisbane | Adelaide | Perth | Hobart | Darwin

Other Formats:

Comma delimited format used in spreadsheet applications
http://www.bom.gov.au/fwo/IDN60901/IDN60901.94776.axf

JavaScript Object Notation format (JSON) in row-major order
http://www.bom.gov.au/fwo/IDN60901/IDN60901.94776.json